Time;durP1;ratioP1;P1;durP2;ratioP2;P2;SDS_P1;SDS_P2;PMS_P1;PMS_P2;Temp;Humidity;BMP_temperature;BMP_pressure;BME280_temperature;BME280_humidity;BME280_pressure;Samples;Min_cycle;Max_cycle;Signal;HPM_P1;HPM_P2
2022/02/12 00:00:17;;;;;;;23.87;8.80;;;2.00;90.40;;;;;;5021873;28;20032;-79
2022/02/12 00:02:43;;;;;;;21.07;8.23;;;2.00;90.60;;;;;;5021866;28;20025;-79
2022/02/12 00:05:10;;;;;;;22.07;7.73;;;2.10;90.70;;;;;;5039575;28;20079;-79
2022/02/12 00:07:36;;;;;;;20.50;7.97;;;1.90;90.90;;;;;;5038457;28;20022;-79
2022/02/12 00:10:06;;;;;;;21.40;8.20;;;1.90;90.90;;;;;;5039675;28;20069;-79
2022/02/12 00:12:32;;;;;;;21.77;7.40;;;1.90;91.00;;;;;;5038348;28;20059;-79
2022/02/12 00:14:57;;;;;;;14.70;6.33;;;1.90;91.20;;;;;;5039613;28;20053;-79
2022/02/12 00:17:24;;;;;;;17.50;6.80;;;2.00;91.30;;;;;;5021757;28;20061;-79
2022/02/12 00:19:50;;;;;;;12.73;5.77;;;1.90;91.40;;;;;;5039471;28;20026;-79
2022/02/12 00:22:16;;;;;;;15.17;5.80;;;1.90;91.50;;;;;;5039419;28;20029;-79
2022/02/12 00:24:42;;;;;;;12.83;5.47;;;2.00;91.60;;;;;;5039564;28;20029;-79
2022/02/12 00:27:08;;;;;;;17.07;5.60;;;2.00;91.60;;;;;;5021627;28;20087;-79
2022/02/12 00:29:34;;;;;;;16.57;6.10;;;1.90;91.60;;;;;;5038283;28;20025;-79
2022/02/12 00:32:00;;;;;;;19.17;6.10;;;1.90;91.70;;;;;;5021628;28;20025;-79
2022/02/12 00:34:26;;;;;;;14.63;6.50;;;1.80;91.80;;;;;;5039442;28;20076;-79
2022/02/12 00:36:52;;;;;;;18.20;6.50;;;1.80;91.90;;;;;;5021536;28;20029;-79
2022/02/12 00:39:17;;;;;;;16.33;7.53;;;1.80;91.90;;;;;;5039393;28;20080;-79
2022/02/12 00:41:43;;;;;;;17.80;6.87;;;1.80;92.00;;;;;;5021477;28;20025;-75
2022/02/12 00:44:09;;;;;;;16.00;7.57;;;1.70;92.10;;;;;;5038000;28;20033;-75
2022/02/12 00:46:34;;;;;;;20.07;7.50;;;1.70;92.10;;;;;;5021376;28;20029;-75
2022/02/12 00:49:00;;;;;;;23.70;7.80;;;1.70;92.20;;;;;;5039090;28;20017;-75
2022/02/12 00:51:26;;;;;;;15.90;6.83;;;1.60;92.20;;;;;;5039300;28;20021;-75
2022/02/12 00:53:51;;;;;;;16.63;7.30;;;1.60;92.20;;;;;;5021457;28;20480;-75
2022/02/12 00:56:17;;;;;;;17.73;7.47;;;1.70;92.30;;;;;;5021407;28;20021;-75
2022/02/12 00:58:43;;;;;;;15.47;7.60;;;1.60;92.30;;;;;;5039082;28;20022;-80
2022/02/12 01:01:09;;;;;;;18.50;6.97;;;1.50;92.40;;;;;;5039087;28;20494;-79
2022/02/12 01:03:34;;;;;;;18.70;7.30;;;1.50;92.50;;;;;;5018787;28;20148;-79
2022/02/12 01:06:00;;;;;;;23.80;8.33;;;1.50;92.50;;;;;;5034738;28;20367;-79
2022/02/12 01:08:26;;;;;;;16.33;7.33;;;1.50;92.60;;;;;;5018099;28;20026;-79
2022/02/12 01:10:52;;;;;;;19.80;7.97;;;1.50;92.60;;;;;;5034698;28;20079;-80
2022/02/12 01:13:18;;;;;;;19.03;7.77;;;1.50;92.70;;;;;;5035925;28;20470;-79
2022/02/12 01:15:43;;;;;;;17.47;7.00;;;1.40;92.80;;;;;;5034569;28;20037;-80
2022/02/12 01:18:09;;;;;;;19.77;7.80;;;1.40;92.90;;;;;;5034392;28;20029;-79
2022/02/12 01:20:35;;;;;;;18.13;7.47;;;1.40;93.00;;;;;;5017899;28;20034;-79
2022/02/12 01:23:01;;;;;;;17.10;7.37;;;1.40;93.00;;;;;;5035773;28;20548;-80
2022/02/12 01:25:27;;;;;;;18.20;8.20;;;1.40;93.10;;;;;;5017837;28;20029;-79
2022/02/12 01:27:53;;;;;;;20.77;8.03;;;1.40;93.20;;;;;;5017914;28;20104;-79
2022/02/12 01:30:19;;;;;;;16.83;7.43;;;1.30;93.20;;;;;;5035584;28;20053;-80
2022/02/12 01:32:45;;;;;;;20.23;7.80;;;1.30;93.30;;;;;;5035488;28;20033;-79
2022/02/12 01:35:12;;;;;;;19.20;7.17;;;1.30;93.40;;;;;;5035488;28;20100;-80
2022/02/12 01:37:38;;;;;;;16.90;7.17;;;1.20;93.50;;;;;;5034183;28;20424;-79
2022/02/12 01:40:05;;;;;;;25.23;7.80;;;1.20;93.60;;;;;;5035531;28;20033;-80
2022/02/12 01:42:31;;;;;;;17.07;5.77;;;1.20;93.60;;;;;;5035093;28;20045;-79
2022/02/12 01:45:00;;;;;;;16.70;6.20;;;1.20;93.70;;;;;;5035105;28;20029;-80
2022/02/12 01:47:26;;;;;;;13.60;7.43;;;1.20;93.80;;;;;;5033797;28;20071;-79
2022/02/12 01:49:52;;;;;;;17.57;6.87;;;1.20;93.90;;;;;;5035008;28;20041;-79
2022/02/12 01:52:18;;;;;;;18.77;7.30;;;1.20;93.90;;;;;;5017549;28;20017;-79
2022/02/12 01:54:45;;;;;;;14.83;7.03;;;1.30;94.00;;;;;;5035163;28;20029;-80
2022/02/12 01:57:11;;;;;;;16.67;6.73;;;1.20;94.00;;;;;;5017334;28;20120;-80
2022/02/12 01:59:37;;;;;;;16.80;7.53;;;1.10;94.10;;;;;;5033978;28;20117;-80
2022/02/12 02:02:03;;;;;;;14.10;6.47;;;1.10;94.40;;;;;;5034926;28;20033;-80
2022/02/12 02:04:29;;;;;;;16.67;6.67;;;1.20;94.40;;;;;;5033643;28;20504;-79
2022/02/12 02:06:55;;;;;;;19.37;6.63;;;1.10;94.20;;;;;;5035053;28;20067;-80
2022/02/12 02:09:21;;;;;;;17.30;7.27;;;1.10;94.20;;;;;;5033525;28;20430;-79
2022/02/12 02:11:47;;;;;;;16.77;6.40;;;1.10;94.20;;;;;;5034762;28;20029;-80
2022/02/12 02:14:14;;;;;;;18.60;7.77;;;1.10;94.30;;;;;;5033323;28;20018;-79
2022/02/12 02:16:42;;;;;;;19.23;6.13;;;1.10;94.40;;;;;;5034535;28;20029;-79
2022/02/12 02:19:09;;;;;;;16.23;6.70;;;1.00;94.40;;;;;;5033365;28;20029;-79
2022/02/12 02:21:37;;;;;;;19.13;6.47;;;1.00;94.50;;;;;;5016811;28;20060;-79
2022/02/12 02:24:04;;;;;;;14.97;6.60;;;1.00;94.50;;;;;;5033251;28;20080;-79
2022/02/12 02:26:32;;;;;;;13.40;5.37;;;1.00;94.60;;;;;;5033044;28;20028;-80
2022/02/12 02:28:58;;;;;;;15.77;6.33;;;1.00;94.60;;;;;;5034436;28;20481;-79
2022/02/12 02:31:24;;;;;;;12.50;6.20;;;1.00;94.70;;;;;;5016584;28;20037;-79
2022/02/12 02:33:50;;;;;;;14.40;5.40;;;0.90;94.70;;;;;;5033117;28;20130;-79
2022/02/12 02:36:16;;;;;;;16.50;6.53;;;0.90;94.70;;;;;;5034316;28;20028;-80
2022/02/12 02:38:42;;;;;;;14.60;5.77;;;0.90;94.80;;;;;;5033205;28;20039;-79
2022/02/12 02:41:08;;;;;;;20.47;6.57;;;0.90;94.80;;;;;;5033131;28;20033;-79
2022/02/12 02:43:33;;;;;;;18.23;5.40;;;0.90;94.90;;;;;;5034147;28;20045;-79
2022/02/12 02:45:59;;;;;;;16.13;5.77;;;0.90;94.90;;;;;;5032587;28;20025;-79
2022/02/12 02:48:25;;;;;;;14.17;5.63;;;0.90;94.90;;;;;;5034188;28;20544;-79
2022/02/12 02:56:19;;;;;;;12.82;4.95;;;0.80;95.00;;;;;;5034088;28;20121;-79
2022/02/12 02:58:49;;;;;;;14.03;5.80;;;0.80;95.00;;;;;;5032661;28;20124;-79
2022/02/12 03:01:16;;;;;;;15.23;5.00;;;0.80;95.00;;;;;;5033805;28;20366;-79
2022/02/12 03:03:44;;;;;;;13.70;5.13;;;0.80;95.10;;;;;;5032465;28;20035;-79
2022/02/12 03:06:11;;;;;;;16.67;5.47;;;0.80;95.20;;;;;;5032537;28;20033;-79
2022/02/12 03:08:38;;;;;;;17.93;5.80;;;0.80;95.30;;;;;;5033726;28;20022;-79
2022/02/12 03:11:05;;;;;;;15.60;5.60;;;0.70;95.30;;;;;;5032486;28;20029;-79
2022/02/12 03:13:31;;;;;;;14.90;5.90;;;0.80;95.30;;;;;;5033588;28;20095;-79
2022/02/12 03:15:57;;;;;;;14.13;5.20;;;0.70;95.30;;;;;;5032284;28;20429;-79
2022/02/12 03:18:23;;;;;;;17.07;6.17;;;0.70;95.40;;;;;;5032456;28;20124;-79
2022/02/12 03:20:48;;;;;;;15.60;5.53;;;0.70;95.40;;;;;;5032277;28;20064;-79
2022/02/12 03:23:14;;;;;;;13.60;6.00;;;0.70;95.50;;;;;;5015829;28;20065;-79
2022/02/12 03:25:40;;;;;;;13.07;5.13;;;0.70;95.50;;;;;;5032245;28;20033;-79
2022/02/12 03:28:06;;;;;;;17.73;6.43;;;0.60;95.50;;;;;;5031481;28;20034;-79
2022/02/12 03:30:36;;;;;;;17.43;5.73;;;0.60;95.60;;;;;;5033459;28;20030;-79
2022/02/12 03:33:01;;;;;;;14.53;5.70;;;0.60;95.60;;;;;;5033301;28;20029;-79
2022/02/12 03:35:27;;;;;;;15.03;5.57;;;0.60;95.70;;;;;;5015918;28;20473;-79
2022/02/12 03:38:04;;;;;;;18.10;6.97;;;0.60;95.70;;;;;;5015539;28;20474;-79
2022/02/12 03:40:30;;;;;;;13.73;5.00;;;0.60;95.70;;;;;;5033281;28;20126;-79
2022/02/12 03:42:55;;;;;;;17.97;5.27;;;0.60;95.70;;;;;;5033290;28;20485;-79
2022/02/12 03:45:22;;;;;;;14.00;6.13;;;0.70;95.70;;;;;;5032013;28;20026;-79
2022/02/12 03:47:51;;;;;;;11.77;5.53;;;0.60;95.70;;;;;;5031843;28;20038;-79
2022/02/12 03:50:17;;;;;;;12.57;6.03;;;0.60;95.70;;;;;;5032954;28;20049;-79
2022/02/12 03:52:43;;;;;;;19.47;5.73;;;0.50;95.80;;;;;;5031891;28;20087;-79
2022/02/12 03:55:09;;;;;;;15.47;6.10;;;0.50;95.80;;;;;;5031923;28;20028;-79
2022/02/12 03:57:36;;;;;;;16.67;6.30;;;0.50;95.90;;;;;;5015411;28;20415;-79
2022/02/12 04:00:08;;;;;;;13.17;6.47;;;0.50;95.80;;;;;;5033016;28;20038;-79
2022/02/12 04:02:34;;;;;;;13.67;5.50;;;0.50;95.90;;;;;;5031904;28;20121;-79
2022/02/12 04:05:00;;;;;;;13.90;5.43;;;0.50;95.90;;;;;;5033120;28;20029;-79
2022/02/12 04:07:25;;;;;;;12.53;5.23;;;0.50;95.90;;;;;;5015397;28;20044;-79
2022/02/12 04:09:51;;;;;;;13.47;5.07;;;0.50;95.90;;;;;;5015433;28;20025;-79
2022/02/12 04:12:16;;;;;;;11.93;5.03;;;0.50;95.90;;;;;;5031769;28;20025;-79
2022/02/12 04:14:42;;;;;;;15.50;5.57;;;0.50;95.90;;;;;;5031641;28;20374;-79
2022/02/12 04:17:07;;;;;;;19.33;5.47;;;0.50;95.90;;;;;;5033059;28;20080;-79
2022/02/12 04:19:33;;;;;;;12.93;5.67;;;0.50;96.00;;;;;;5015135;28;20180;-79
2022/02/12 04:21:59;;;;;;;17.27;5.73;;;0.50;96.10;;;;;;5032919;28;20044;-79
2022/02/12 04:24:24;;;;;;;18.83;6.73;;;0.50;96.10;;;;;;5031804;28;20097;-79
2022/02/12 04:26:50;;;;;;;10.10;5.10;;;0.50;96.20;;;;;;4998702;28;20390;-79
2022/02/12 04:29:16;;;;;;;11.80;4.37;;;0.50;96.30;;;;;;5031583;28;20038;-79
2022/02/12 04:31:41;;;;;;;16.40;5.50;;;0.50;96.30;;;;;;5032789;28;20026;-79
2022/02/12 04:34:07;;;;;;;15.10;5.37;;;0.50;96.30;;;;;;5032684;28;20029;-79
2022/02/12 04:36:33;;;;;;;12.33;4.90;;;0.50;96.40;;;;;;5031620;28;20108;-79
2022/02/12 04:38:58;;;;;;;13.27;4.60;;;0.50;96.40;;;;;;5034032;28;20359;-79
2022/02/12 04:41:24;;;;;;;11.83;4.90;;;0.50;96.40;;;;;;5036469;28;20109;-79
2022/02/12 04:43:50;;;;;;;14.90;5.03;;;0.50;96.40;;;;;;5035360;28;20132;-79
2022/02/12 04:46:16;;;;;;;12.60;4.57;;;0.50;96.40;;;;;;5018536;28;20039;-79
2022/02/12 04:48:42;;;;;;;15.73;5.17;;;0.50;96.40;;;;;;5035081;28;20128;-79
2022/02/12 04:51:07;;;;;;;12.23;5.07;;;0.50;96.50;;;;;;5018562;28;20103;-79
2022/02/12 04:53:33;;;;;;;15.83;5.10;;;0.50;96.50;;;;;;5018486;28;20427;-79
2022/02/12 04:55:59;;;;;;;14.23;5.60;;;0.50;96.50;;;;;;5034894;28;20099;-79
2022/02/12 04:58:24;;;;;;;14.57;4.77;;;0.50;96.50;;;;;;5036170;28;20041;-79
2022/02/12 05:00:50;;;;;;;14.50;5.10;;;0.40;96.50;;;;;;5036128;28;20163;-79
2022/02/12 05:03:15;;;;;;;17.23;5.40;;;0.40;96.50;;;;;;5034897;28;20473;-79
2022/02/12 05:05:41;;;;;;;13.07;4.63;;;0.40;96.60;;;;;;5034781;28;20123;-79
2022/02/12 05:08:08;;;;;;;10.87;4.50;;;0.50;96.70;;;;;;5018108;28;20032;-79
2022/02/12 05:10:34;;;;;;;16.30;4.43;;;0.40;96.70;;;;;;5034794;28;20021;-79
2022/02/12 05:13:00;;;;;;;18.13;4.90;;;0.40;96.80;;;;;;5034917;28;20117;-79
2022/02/12 05:15:25;;;;;;;13.80;4.83;;;0.50;96.80;;;;;;5034607;28;20084;-79
2022/02/12 05:17:53;;;;;;;15.10;4.20;;;0.50;96.90;;;;;;5035732;28;20037;-80
2022/02/12 05:20:19;;;;;;;19.47;5.43;;;0.50;96.90;;;;;;5018028;28;20041;-79
2022/02/12 05:22:44;;;;;;;14.97;4.10;;;0.50;96.80;;;;;;5035961;28;20021;-79
2022/02/12 05:25:10;;;;;;;17.97;5.20;;;0.60;96.80;;;;;;5035552;28;20053;-79
2022/02/12 05:27:36;;;;;;;18.07;5.27;;;0.50;96.80;;;;;;5001532;28;20129;-79
2022/02/12 05:30:03;;;;;;;13.03;4.87;;;0.50;96.70;;;;;;5034369;28;20060;-79
2022/02/12 05:32:28;;;;;;;18.30;5.03;;;0.50;96.70;;;;;;5048587;28;20029;-79
2022/02/12 05:34:56;;;;;;;13.23;4.90;;;0.50;96.70;;;;;;5053942;28;20039;-78
2022/02/12 05:37:21;;;;;;;13.97;5.90;;;0.50;97.00;;;;;;5039387;28;20037;-79
2022/02/12 05:39:47;;;;;;;14.57;4.17;;;0.50;96.70;;;;;;5047267;28;20090;-79
2022/02/12 05:42:12;;;;;;;10.77;4.47;;;0.50;96.80;;;;;;5029234;28;20378;-79
2022/02/12 05:44:38;;;;;;;13.67;4.53;;;0.50;96.80;;;;;;5051015;28;20585;-79
2022/02/12 05:47:04;;;;;;;14.43;5.27;;;0.50;96.80;;;;;;5035723;28;20397;-79
2022/02/12 05:49:29;;;;;;;15.40;5.53;;;0.50;96.90;;;;;;5033620;28;20444;-79
2022/02/12 05:51:55;;;;;;;16.43;5.23;;;0.50;96.80;;;;;;5052526;28;20037;-79
2022/02/12 05:54:21;;;;;;;15.77;4.93;;;0.50;96.90;;;;;;5051608;28;20337;-79
2022/02/12 05:56:46;;;;;;;18.57;5.10;;;0.50;96.90;;;;;;5038740;28;20036;-79
2022/02/12 05:59:13;;;;;;;16.97;5.60;;;0.60;96.90;;;;;;5053202;28;20041;-80
2022/02/12 06:01:40;;;;;;;15.07;5.20;;;0.60;96.80;;;;;;5052431;28;20565;-79
2022/02/12 06:04:05;;;;;;;16.90;5.40;;;0.60;96.80;;;;;;5052234;28;20035;-79
2022/02/12 06:06:31;;;;;;;15.67;4.33;;;0.60;96.70;;;;;;5036849;28;20041;-79
2022/02/12 06:08:57;;;;;;;19.57;5.77;;;0.60;96.80;;;;;;5053283;28;20473;-79
2022/02/12 06:11:22;;;;;;;16.30;5.10;;;0.50;96.70;;;;;;5054012;28;20066;-79
2022/02/12 06:13:52;;;;;;;13.43;5.00;;;0.50;96.70;;;;;;5054551;28;20363;-79
2022/02/12 06:16:21;;;;;;;18.67;5.67;;;0.50;96.80;;;;;;5053440;28;20388;-79
2022/02/12 06:18:47;;;;;;;15.83;6.23;;;0.60;96.90;;;;;;5053416;28;20032;-79
2022/02/12 06:21:14;;;;;;;16.80;5.80;;;0.60;96.90;;;;;;5053347;28;20036;-80
2022/02/12 06:23:40;;;;;;;14.73;6.20;;;0.50;96.80;;;;;;5054389;28;20409;-80
2022/02/12 06:26:06;;;;;;;14.70;5.63;;;0.50;96.80;;;;;;5054363;28;20040;-79
2022/02/12 06:28:32;;;;;;;20.87;6.27;;;0.50;96.80;;;;;;5053515;28;20534;-79
2022/02/12 06:30:58;;;;;;;17.80;5.57;;;0.50;96.80;;;;;;5054324;28;20033;-79
2022/02/12 06:33:24;;;;;;;14.07;6.00;;;0.50;96.90;;;;;;5053178;28;20465;-79
2022/02/12 06:35:49;;;;;;;17.30;5.90;;;0.50;96.90;;;;;;5053047;28;20036;-79
2022/02/12 06:38:15;;;;;;;13.03;5.17;;;0.50;96.80;;;;;;5054149;28;20056;-79
2022/02/12 06:40:41;;;;;;;14.63;5.73;;;0.50;96.80;;;;;;5052929;28;20029;-80
2022/02/12 06:43:06;;;;;;;16.37;5.83;;;0.50;96.80;;;;;;5053005;28;20041;-79
2022/02/12 06:45:34;;;;;;;15.33;5.70;;;0.50;96.90;;;;;;5052802;28;20072;-79
2022/02/12 06:47:59;;;;;;;16.27;6.20;;;0.50;96.90;;;;;;5054319;28;20029;-79
2022/02/12 06:50:25;;;;;;;14.07;5.50;;;0.50;97.00;;;;;;5052484;28;20114;-79
2022/02/12 06:52:51;;;;;;;15.47;5.33;;;0.50;97.00;;;;;;5053787;28;20428;-79
2022/02/12 06:55:16;;;;;;;23.80;6.67;;;0.50;97.10;;;;;;5052454;28;20155;-80
2022/02/12 06:57:42;;;;;;;15.03;5.40;;;0.50;97.10;;;;;;5052590;28;20029;-80
2022/02/12 07:00:08;;;;;;;15.83;5.80;;;0.50;97.10;;;;;;5035746;28;20035;-80
2022/02/12 07:02:34;;;;;;;15.40;5.87;;;0.60;97.30;;;;;;5052730;28;20029;-80
2022/02/12 07:05:00;;;;;;;18.73;5.73;;;0.60;97.30;;;;;;5053727;28;20456;-80
2022/02/12 07:07:26;;;;;;;14.63;5.27;;;0.60;97.30;;;;;;5035809;28;20036;-80
2022/02/12 07:09:51;;;;;;;15.30;5.20;;;0.70;97.30;;;;;;5053554;28;20032;-80
2022/02/12 07:12:17;;;;;;;16.53;4.93;;;0.60;97.20;;;;;;5052486;28;20162;-80
2022/02/12 07:14:42;;;;;;;17.60;5.90;;;0.60;97.20;;;;;;5053471;28;20051;-79
2022/02/12 07:17:08;;;;;;;21.33;6.30;;;0.60;97.20;;;;;;5052139;28;20120;-80
2022/02/12 07:19:36;;;;;;;14.67;4.97;;;0.60;97.20;;;;;;5035452;28;20037;-80
2022/02/12 07:22:02;;;;;;;19.17;5.50;;;0.70;97.30;;;;;;5053520;28;20060;-80
2022/02/12 07:24:28;;;;;;;13.27;5.27;;;0.70;97.30;;;;;;5053478;28;20060;-80
2022/02/12 07:26:53;;;;;;;18.60;6.60;;;0.70;97.30;;;;;;5052069;28;20031;-79
2022/02/12 07:29:19;;;;;;;16.83;5.43;;;0.80;97.40;;;;;;5053231;28;20104;-79
2022/02/12 07:31:45;;;;;;;15.57;5.23;;;0.80;97.50;;;;;;5041835;28;20033;-79
2022/02/12 07:34:15;;;;;;;17.67;5.97;;;0.80;97.40;;;;;;5034650;28;20029;-79
2022/02/12 07:36:41;;;;;;;23.10;5.87;;;0.80;97.40;;;;;;5035830;28;20477;-80
2022/02/12 07:39:07;;;;;;;18.37;5.50;;;0.90;97.40;;;;;;5053168;28;20511;-79
2022/02/12 07:41:35;;;;;;;14.10;5.03;;;0.90;97.40;;;;;;5053061;28;20060;-79
2022/02/12 07:44:02;;;;;;;13.70;5.27;;;1.00;97.30;;;;;;5035124;28;20033;-79
2022/02/12 07:46:28;;;;;;;17.40;5.17;;;1.00;97.30;;;;;;5052967;28;20519;-79
2022/02/12 07:48:54;;;;;;;14.40;5.03;;;1.10;97.20;;;;;;5033745;28;20040;-79
2022/02/12 07:51:19;;;;;;;31.27;8.63;;;1.10;97.20;;;;;;5035292;28;20083;-79
2022/02/12 07:53:45;;;;;;;18.43;5.73;;;1.10;97.10;;;;;;5052880;28;20389;-80
2022/02/12 07:56:10;;;;;;;13.90;4.83;;;1.20;97.10;;;;;;5052979;28;20108;-79
2022/02/12 07:58:38;;;;;;;19.17;5.33;;;1.20;97.10;;;;;;5035176;28;20115;-79
2022/02/12 08:01:03;;;;;;;14.97;5.83;;;1.30;97.00;;;;;;5035204;28;20366;-79
2022/02/12 08:03:29;;;;;;;20.40;5.83;;;1.30;97.00;;;;;;5035071;28;20028;-79
2022/02/12 08:05:55;;;;;;;20.80;5.63;;;1.40;97.00;;;;;;5034795;28;20033;-79
2022/02/12 08:08:20;;;;;;;20.67;5.67;;;1.40;96.90;;;;;;5052679;28;20496;-80
2022/02/12 08:13:30;;;;;;;17.02;5.43;;;1.50;96.70;;;;;;5039922;28;20040;-80
2022/02/12 08:15:56;;;;;;;15.57;5.03;;;1.60;96.60;;;;;;5056607;28;20029;-79
2022/02/12 08:18:21;;;;;;;17.77;5.33;;;1.60;96.50;;;;;;5038860;28;20040;-79
2022/02/12 08:20:47;;;;;;;22.57;6.30;;;1.70;96.70;;;;;;5056633;28;20036;-80
2022/02/12 08:23:13;;;;;;;18.43;5.23;;;1.70;96.30;;;;;;5022096;28;20033;-79
2022/02/12 08:25:38;;;;;;;17.00;5.43;;;1.70;96.30;;;;;;5038396;28;20393;-80
2022/02/12 08:28:04;;;;;;;13.87;5.10;;;1.80;96.20;;;;;;5038781;28;20033;-79
2022/02/12 08:30:29;;;;;;;21.40;5.37;;;1.80;96.10;;;;;;5056382;28;20061;-79
2022/02/12 08:32:55;;;;;;;15.27;4.67;;;1.90;96.00;;;;;;5022236;28;20029;-79
2022/02/12 08:35:21;;;;;;;15.53;5.40;;;1.90;95.90;;;;;;5056432;28;20036;-79
2022/02/12 08:37:46;;;;;;;20.70;6.13;;;2.00;95.80;;;;;;5056408;28;20048;-79
2022/02/12 08:40:15;;;;;;;17.07;4.80;;;2.00;95.60;;;;;;5055927;28;20032;-80
2022/02/12 08:42:42;;;;;;;17.60;5.37;;;2.00;95.70;;;;;;5056245;28;20036;-79
2022/02/12 08:45:09;;;;;;;19.43;5.43;;;2.10;95.50;;;;;;5052409;28;20128;-79
2022/02/12 08:47:35;;;;;;;14.30;5.23;;;2.10;95.40;;;;;;5058273;28;20029;-80
2022/02/12 08:50:01;;;;;;;13.03;4.77;;;2.10;95.40;;;;;;5037070;28;20047;-80
2022/02/12 08:52:26;;;;;;;18.20;5.07;;;2.20;95.30;;;;;;5054794;28;20033;-80
2022/02/12 08:54:52;;;;;;;20.57;4.63;;;2.20;95.20;;;;;;5039913;28;20033;-81
2022/02/12 08:57:18;;;;;;;16.27;5.60;;;2.20;95.00;;;;;;5037828;28;20056;-79
2022/02/12 08:59:44;;;;;;;19.80;5.03;;;2.30;94.90;;;;;;5055608;28;20416;-80
2022/02/12 09:02:11;;;;;;;14.47;5.10;;;2.30;94.90;;;;;;5055939;28;20108;-80
2022/02/12 09:04:36;;;;;;;22.33;6.47;;;2.30;94.80;;;;;;5037907;28;20044;-80
2022/02/12 09:07:03;;;;;;;18.37;4.50;;;2.30;94.60;;;;;;5037832;28;20037;-80
2022/02/12 09:09:29;;;;;;;19.13;4.33;;;2.40;94.70;;;;;;5055283;28;20037;-80
2022/02/12 09:11:54;;;;;;;12.40;4.33;;;2.40;94.60;;;;;;5021054;28;20036;-80
2022/02/12 09:14:20;;;;;;;10.80;4.43;;;2.50;94.60;;;;;;5021167;28;20025;-82
2022/02/12 09:16:45;;;;;;;14.40;4.73;;;2.50;94.40;;;;;;5020767;28;20031;-80
2022/02/12 09:19:11;;;;;;;12.80;4.63;;;2.60;94.10;;;;;;5022399;28;20397;-80
2022/02/12 09:21:37;;;;;;;12.77;5.77;;;2.60;94.00;;;;;;5020527;28;20140;-80
2022/02/12 09:24:03;;;;;;;9.37;4.07;;;2.60;94.20;;;;;;5036853;28;20025;-80
2022/02/12 09:26:32;;;;;;;16.63;4.17;;;2.70;93.70;;;;;;5054896;28;20029;-80
2022/02/12 09:28:59;;;;;;;15.30;4.13;;;2.80;93.80;;;;;;5038493;28;20025;-80
2022/02/12 09:31:25;;;;;;;19.10;4.60;;;2.80;93.30;;;;;;5037481;28;20080;-81
2022/02/12 09:33:51;;;;;;;16.30;4.60;;;2.90;92.90;;;;;;5055111;28;20100;-80
2022/02/12 09:36:17;;;;;;;16.77;5.00;;;2.90;93.10;;;;;;5004299;28;20119;-79
2022/02/12 09:38:43;;;;;;;14.93;4.10;;;3.00;92.60;;;;;;5055367;28;20033;-79
2022/02/12 09:41:11;;;;;;;15.30;4.23;;;3.10;92.20;;;;;;5037692;28;20108;-81
2022/02/12 09:43:40;;;;;;;12.40;3.73;;;3.10;91.90;;;;;;5037693;28;20040;-80
2022/02/12 09:46:18;;;;;;;15.10;3.80;;;3.20;92.00;;;;;;5036814;28;20469;-79
2022/02/12 09:48:46;;;;;;;15.40;4.10;;;3.30;91.80;;;;;;5037034;28;20125;-80
2022/02/12 09:51:13;;;;;;;15.73;5.13;;;3.30;91.40;;;;;;5018435;28;20433;-81
2022/02/12 09:53:38;;;;;;;10.80;3.50;;;3.40;91.40;;;;;;5055100;28;20029;-79
2022/02/12 09:56:05;;;;;;;17.90;3.70;;;3.50;91.30;;;;;;5036954;28;20119;-80
2022/02/12 09:58:30;;;;;;;17.20;4.60;;;3.70;91.40;;;;;;5036963;28;20031;-80
2022/02/12 10:00:56;;;;;;;12.43;3.80;;;3.90;90.90;;;;;;5035812;28;20040;-80
2022/02/12 10:03:21;;;;;;;13.37;3.60;;;4.10;90.80;;;;;;5036827;28;20045;-83
2022/02/12 10:05:53;;;;;;;11.07;3.17;;;4.40;90.80;;;;;;5036764;28;20041;-80
2022/02/12 10:08:20;;;;;;;13.47;3.07;;;4.80;90.60;;;;;;5037791;28;20021;-81
2022/02/12 10:10:47;;;;;;;11.57;3.07;;;5.30;90.70;;;;;;5036730;28;20123;-80
2022/02/12 10:13:18;;;;;;;11.70;3.10;;;5.70;90.20;;;;;;5054303;28;20033;-80
2022/02/12 10:15:52;;;;;;;12.00;2.70;;;6.40;90.20;;;;;;5036674;28;20370;-79
2022/02/12 10:18:21;;;;;;;16.27;2.78;;;7.20;89.20;;;;;;5054420;28;20021;-81
2022/02/12 10:20:48;;;;;;;11.80;2.40;;;7.90;86.00;;;;;;5036456;28;20043;-81
2022/02/12 10:23:14;;;;;;;14.68;2.80;;;8.70;84.00;;;;;;5036497;28;20072;-79
2022/02/12 10:25:42;;;;;;;9.77;2.30;;;9.10;82.10;;;;;;5036311;28;20135;-81
2022/02/12 10:28:10;;;;;;;12.00;2.20;;;9.50;78.60;;;;;;5053562;28;20025;-78
2022/02/12 10:30:35;;;;;;;8.00;2.17;;;10.00;74.00;;;;;;5035076;28;20025;-79
2022/02/12 10:33:03;;;;;;;8.23;1.88;;;10.50;74.50;;;;;;5036018;28;20488;-79
2022/02/12 10:35:30;;;;;;;7.63;1.70;;;10.80;72.90;;;;;;5053183;28;20466;-78
2022/02/12 10:38:10;;;;;;;7.40;1.85;;;11.10;69.60;;;;;;5035740;28;20033;-77
2022/02/12 10:40:38;;;;;;;8.68;1.92;;;11.50;70.00;;;;;;5036179;28;20028;-78
2022/02/12 10:43:04;;;;;;;11.35;2.03;;;12.10;70.80;;;;;;5019816;28;20035;-79
2022/02/12 10:45:31;;;;;;;10.57;2.20;;;12.60;69.20;;;;;;5019647;28;20029;-80
2022/02/12 10:47:58;;;;;;;8.88;1.88;;;13.20;68.10;;;;;;5036064;28;20449;-78
2022/02/12 10:50:26;;;;;;;7.78;2.05;;;13.50;64.10;;;;;;5053939;28;20060;-78
2022/02/12 10:52:58;;;;;;;9.70;2.05;;;13.90;63.60;;;;;;5053849;28;20037;-80
2022/02/12 10:55:31;;;;;;;10.00;2.42;;;14.00;61.50;;;;;;5053820;28;20452;-80
2022/02/12 10:58:13;;;;;;;12.27;2.53;;;13.90;57.10;;;;;;5035955;28;20029;-77
2022/02/12 11:00:41;;;;;;;7.63;2.75;;;13.50;56.00;;;;;;5035650;28;20359;-77
2022/02/12 11:03:12;;;;;;;11.30;2.42;;;13.10;54.20;;;;;;5035326;28;20060;-79
2022/02/12 11:05:42;;;;;;;15.02;2.72;;;12.60;55.50;;;;;;5035304;28;20037;-79
2022/02/12 11:08:09;;;;;;;8.63;2.03;;;12.40;56.40;;;;;;5033601;28;20021;-77
2022/02/12 11:10:39;;;;;;;6.40;1.45;;;12.70;57.50;;;;;;5033720;28;20025;-77
2022/02/12 11:13:07;;;;;;;9.20;2.08;;;13.20;58.60;;;;;;5032465;28;20030;-77
2022/02/12 11:15:33;;;;;;;5.70;1.65;;;13.70;58.50;;;;;;5033617;28;20035;-79
2022/02/12 11:18:00;;;;;;;8.63;2.08;;;14.20;57.50;;;;;;5033645;28;20021;-79
2022/02/12 11:20:30;;;;;;;5.60;1.70;;;14.80;56.00;;;;;;5032165;28;20478;-81
2022/02/12 11:23:30;;;;;;;7.50;1.85;;;15.20;55.20;;;;;;5016018;28;20025;-80
2022/02/12 11:26:16;;;;;;;8.15;2.00;;;15.60;53.10;;;;;;5044488;28;20111;-80
2022/02/12 11:28:42;;;;;;;10.77;2.40;;;15.90;52.10;;;;;;5051261;28;20025;-79
2022/02/12 11:31:21;;;;;;;7.25;1.67;;;16.10;51.00;;;;;;5035496;28;20048;-81
2022/02/12 11:34:09;;;;;;;7.07;1.70;;;16.30;50.00;;;;;;5053301;28;20389;-81
2022/02/12 11:36:39;;;;;;;8.10;1.98;;;16.50;48.50;;;;;;5035028;28;20021;-79
2022/02/12 11:39:12;;;;;;;7.80;2.03;;;16.70;48.70;;;;;;5052729;28;20099;-80
2022/02/12 11:41:39;;;;;;;8.88;2.13;;;16.70;47.30;;;;;;5018427;28;20492;-79
2022/02/12 11:44:05;;;;;;;11.43;2.53;;;16.90;47.60;;;;;;5035372;28;20367;-80
2022/02/12 11:47:02;;;;;;;10.45;1.80;;;17.10;47.00;;;;;;5035168;28;20059;-80
2022/02/12 11:49:45;;;;;;;9.07;2.03;;;17.30;45.60;;;;;;5034477;28;20465;-78
2022/02/12 11:52:39;;;;;;;8.80;1.80;;;17.40;46.20;;;;;;5035153;28;20023;-79
2022/02/12 11:55:05;;;;;;;8.15;1.77;;;17.60;45.40;;;;;;5045975;28;20049;-79
2022/02/12 11:57:31;;;;;;;11.85;2.50;;;17.60;44.40;;;;;;5035432;28;20363;-78
2022/02/12 12:00:03;;;;;;;8.38;1.25;;;17.80;43.60;;;;;;5035104;28;20025;-78
2022/02/12 12:03:00;;;;;;;7.35;1.77;;;17.90;43.90;;;;;;5034983;28;20454;-78
2022/02/12 12:05:26;;;;;;;8.63;2.08;;;18.20;42.80;;;;;;5034977;28;20040;-79
2022/02/12 12:10:30;;;;;;;11.68;2.00;;;18.50;42.80;;;;;;5050092;28;20025;-78
2022/02/12 12:13:00;;;;;;;8.13;1.80;;;18.60;41.60;;;;;;5052440;28;20072;-79
2022/02/12 12:15:28;;;;;;;8.45;1.77;;;18.70;41.40;;;;;;5034446;28;20021;-79
2022/02/12 12:18:00;;;;;;;11.35;2.25;;;18.80;41.00;;;;;;5052399;28;20025;-79
2022/02/12 12:20:40;;;;;;;6.50;1.40;;;18.90;40.30;;;;;;5052166;28;20025;-79
2022/02/12 12:23:09;;;;;;;7.15;1.85;;;18.90;39.70;;;;;;5052197;28;20029;-79
2022/02/12 12:25:51;;;;;;;7.90;1.60;;;18.90;40.20;;;;;;5034340;28;20025;-79
2022/02/12 12:28:40;;;;;;;6.90;1.50;;;18.90;39.40;;;;;;5051059;28;20160;-79
2022/02/12 12:31:14;;;;;;;8.90;1.77;;;18.80;40.10;;;;;;5034583;28;20036;-79
2022/02/12 12:33:45;;;;;;;6.43;1.55;;;19.00;40.20;;;;;;5050093;28;20017;-79
2022/02/12 12:36:17;;;;;;;8.45;1.73;;;19.20;40.20;;;;;;5052413;28;20029;-79
2022/02/12 12:38:45;;;;;;;9.50;2.80;;;19.30;39.10;;;;;;5035029;28;20033;-78
2022/02/12 12:41:31;;;;;;;8.80;1.92;;;19.20;38.60;;;;;;5034592;28;20025;-81
2022/02/12 12:44:19;;;;;;;10.57;1.83;;;19.30;38.70;;;;;;5051502;28;20056;-78
2022/02/12 12:46:49;;;;;;;10.57;1.88;;;19.40;38.20;;;;;;5052468;28;20083;-79
2022/02/12 12:49:51;;;;;;;7.15;1.80;;;19.50;38.30;;;;;;5051375;28;20030;-79
2022/02/12 12:52:23;;;;;;;8.60;2.45;;;19.50;38.00;;;;;;5001255;28;20071;-79
2022/02/12 12:54:49;;;;;;;6.63;1.65;;;19.70;38.00;;;;;;5035823;28;20025;-80
2022/02/12 12:57:15;;;;;;;7.50;2.00;;;20.10;38.20;;;;;;5052226;28;20196;-82